sensor_id;sensor_type;location;lat;lon;timestamp;temperature;humidity
77305;DHT22;66364;52.622;7.746;2023-02-21T00:00:56;8.90;99.90
77305;DHT22;66364;52.622;7.746;2023-02-21T00:02:57;8.90;99.90
77305;DHT22;66364;52.622;7.746;2023-02-21T00:04:58;8.70;99.90
77305;DHT22;66364;52.622;7.746;2023-02-21T00:07:07;8.30;99.90
77305;DHT22;66364;52.622;7.746;2023-02-21T00:09:08;8.90;99.90
77305;DHT22;66364;52.622;7.746;2023-02-21T00:11:08;9.00;99.90
77305;DHT22;66364;52.622;7.746;2023-02-21T00:13:10;8.90;99.90
77305;DHT22;66364;52.622;7.746;2023-02-21T00:15:11;8.90;99.90
77305;DHT22;66364;52.622;7.746;2023-02-21T00:17:12;9.00;99.90
77305;DHT22;66364;52.622;7.746;2023-02-21T00:19:13;9.10;99.90
77305;DHT22;66364;52.622;7.746;2023-02-21T00:21:14;9.00;99.90
77305;DHT22;66364;52.622;7.746;2023-02-21T00:23:21;9.00;99.90
77305;DHT22;66364;52.622;7.746;2023-02-21T00:25:22;9.00;99.90
77305;DHT22;66364;52.622;7.746;2023-02-21T00:27:24;9.00;99.90
77305;DHT22;66364;52.622;7.746;2023-02-21T00:29:26;9.00;99.90
77305;DHT22;66364;52.622;7.746;2023-02-21T00:31:26;8.90;99.90
77305;DHT22;66364;52.622;7.746;2023-02-21T00:33:27;9.00;99.90
77305;DHT22;66364;52.622;7.746;2023-02-21T00:35:28;9.00;99.90
77305;DHT22;66364;52.622;7.746;2023-02-21T00:37:29;8.90;99.90
77305;DHT22;66364;52.622;7.746;2023-02-21T00:39:30;8.90;99.90
77305;DHT22;66364;52.622;7.746;2023-02-21T00:41:31;9.10;99.90
77305;DHT22;66364;52.622;7.746;2023-02-21T00:43:34;9.10;99.90
77305;DHT22;66364;52.622;7.746;2023-02-21T00:45:35;9.10;99.90
77305;DHT22;66364;52.622;7.746;2023-02-21T00:47:36;9.10;99.90
77305;DHT22;66364;52.622;7.746;2023-02-21T00:49:37;9.10;99.90
77305;DHT22;66364;52.622;7.746;2023-02-21T00:51:39;9.10;99.90
77305;DHT22;66364;52.622;7.746;2023-02-21T00:53:40;9.10;99.90
77305;DHT22;66364;52.622;7.746;2023-02-21T00:55:42;9.00;99.90
77305;DHT22;66364;52.622;7.746;2023-02-21T00:57:43;9.00;99.90
77305;DHT22;66364;52.622;7.746;2023-02-21T00:59:44;8.90;99.90
77305;DHT22;66364;52.622;7.746;2023-02-21T01:01:45;9.50;99.90
77305;DHT22;66364;52.622;7.746;2023-02-21T01:03:46;9.00;99.90
77305;DHT22;66364;52.622;7.746;2023-02-21T01:05:47;9.00;99.90
77305;DHT22;66364;52.622;7.746;2023-02-21T01:07:48;9.20;99.90
77305;DHT22;66364;52.622;7.746;2023-02-21T01:09:49;8.90;99.90
77305;DHT22;66364;52.622;7.746;2023-02-21T01:11:50;9.20;99.90
77305;DHT22;66364;52.622;7.746;2023-02-21T01:13:50;9.20;99.90
77305;DHT22;66364;52.622;7.746;2023-02-21T01:15:52;9.30;99.90
77305;DHT22;66364;52.622;7.746;2023-02-21T01:17:59;9.50;99.90
77305;DHT22;66364;52.622;7.746;2023-02-21T01:20:00;9.40;99.90
77305;DHT22;66364;52.622;7.746;2023-02-21T01:22:08;9.20;99.90
77305;DHT22;66364;52.622;7.746;2023-02-21T01:24:12;9.10;99.90
77305;DHT22;66364;52.622;7.746;2023-02-21T01:26:22;9.30;99.90
77305;DHT22;66364;52.622;7.746;2023-02-21T01:28:24;9.20;99.90
77305;DHT22;66364;52.622;7.746;2023-02-21T01:30:25;9.40;99.90
77305;DHT22;66364;52.622;7.746;2023-02-21T01:32:26;9.20;99.90
77305;DHT22;66364;52.622;7.746;2023-02-21T01:34:27;9.00;99.90
77305;DHT22;66364;52.622;7.746;2023-02-21T01:36:29;9.20;99.90
77305;DHT22;66364;52.622;7.746;2023-02-21T01:38:36;9.30;99.90
77305;DHT22;66364;52.622;7.746;2023-02-21T01:40:37;9.50;99.90
77305;DHT22;66364;52.622;7.746;2023-02-21T01:42:38;9.30;99.90
77305;DHT22;66364;52.622;7.746;2023-02-21T01:44:42;9.20;99.90
77305;DHT22;66364;52.622;7.746;2023-02-21T01:46:52;9.20;99.90
77305;DHT22;66364;52.622;7.746;2023-02-21T01:48:54;9.20;99.90
77305;DHT22;66364;52.622;7.746;2023-02-21T01:50:55;9.30;99.90
77305;DHT22;66364;52.622;7.746;2023-02-21T01:52:58;9.50;99.90
77305;DHT22;66364;52.622;7.746;2023-02-21T01:55:01;9.50;99.90
77305;DHT22;66364;52.622;7.746;2023-02-21T01:57:05;9.20;99.90
77305;DHT22;66364;52.622;7.746;2023-02-21T01:59:07;9.30;99.90
77305;DHT22;66364;52.622;7.746;2023-02-21T02:01:09;9.20;99.90
77305;DHT22;66364;52.622;7.746;2023-02-21T02:03:15;9.20;99.90
77305;DHT22;66364;52.622;7.746;2023-02-21T02:05:26;9.30;99.90
77305;DHT22;66364;52.622;7.746;2023-02-21T02:07:28;9.30;99.90
77305;DHT22;66364;52.622;7.746;2023-02-21T02:09:29;9.20;99.90
77305;DHT22;66364;52.622;7.746;2023-02-21T02:35:41;9.30;99.90
77305;DHT22;66364;52.622;7.746;2023-02-21T02:40:13;9.30;99.90
77305;DHT22;66364;52.622;7.746;2023-02-21T02:42:26;9.30;99.90
77305;DHT22;66364;52.622;7.746;2023-02-21T02:47:02;9.20;99.90
77305;DHT22;66364;52.622;7.746;2023-02-21T02:49:21;9.40;99.90
77305;DHT22;66364;52.622;7.746;2023-02-21T02:51:15;9.30;99.90
77305;DHT22;66364;52.622;7.746;2023-02-21T02:53:24;9.30;99.90
77305;DHT22;66364;52.622;7.746;2023-02-21T02:57:31;9.00;99.90
77305;DHT22;66364;52.622;7.746;2023-02-21T02:59:36;9.30;99.90
77305;DHT22;66364;52.622;7.746;2023-02-21T03:04:14;9.40;99.90
77305;DHT22;66364;52.622;7.746;2023-02-21T03:08:32;9.30;99.90
77305;DHT22;66364;52.622;7.746;2023-02-21T03:11:04;9.80;99.90
77305;DHT22;66364;52.622;7.746;2023-02-21T03:15:24;9.40;99.90
77305;DHT22;66364;52.622;7.746;2023-02-21T03:17:31;9.30;99.90
77305;DHT22;66364;52.622;7.746;2023-02-21T03:19:41;9.40;99.90
77305;DHT22;66364;52.622;7.746;2023-02-21T03:21:41;9.50;99.90
77305;DHT22;66364;52.622;7.746;2023-02-21T03:23:45;9.30;99.90
77305;DHT22;66364;52.622;7.746;2023-02-21T03:25:49;9.30;99.90
77305;DHT22;66364;52.622;7.746;2023-02-21T03:27:59;9.20;99.90
77305;DHT22;66364;52.622;7.746;2023-02-21T03:30:04;9.40;99.90
77305;DHT22;66364;52.622;7.746;2023-02-21T03:32:20;9.20;99.90
77305;DHT22;66364;52.622;7.746;2023-02-21T03:34:17;9.50;99.90
77305;DHT22;66364;52.622;7.746;2023-02-21T03:36:18;9.00;99.90
77305;DHT22;66364;52.622;7.746;2023-02-21T03:38:20;9.20;99.90
77305;DHT22;66364;52.622;7.746;2023-02-21T03:40:27;9.20;99.90
77305;DHT22;66364;52.622;7.746;2023-02-21T03:42:28;9.20;99.90
77305;DHT22;66364;52.622;7.746;2023-02-21T03:44:28;8.90;99.90
77305;DHT22;66364;52.622;7.746;2023-02-21T03:46:29;9.20;99.90
77305;DHT22;66364;52.622;7.746;2023-02-21T03:48:30;8.60;99.90
77305;DHT22;66364;52.622;7.746;2023-02-21T03:50:32;9.30;99.90
77305;DHT22;66364;52.622;7.746;2023-02-21T03:52:33;9.20;99.90
77305;DHT22;66364;52.622;7.746;2023-02-21T03:54:35;9.40;99.90
77305;DHT22;66364;52.622;7.746;2023-02-21T03:56:36;9.20;99.90
77305;DHT22;66364;52.622;7.746;2023-02-21T03:58:37;9.20;99.90
77305;DHT22;66364;52.622;7.746;2023-02-21T04:00:38;9.20;99.90
77305;DHT22;66364;52.622;7.746;2023-02-21T04:02:39;9.20;99.90
77305;DHT22;66364;52.622;7.746;2023-02-21T04:04:39;9.30;99.90
77305;DHT22;66364;52.622;7.746;2023-02-21T04:06:40;9.30;99.90
77305;DHT22;66364;52.622;7.746;2023-02-21T04:08:42;9.30;99.90
77305;DHT22;66364;52.622;7.746;2023-02-21T04:10:43;9.20;99.90
77305;DHT22;66364;52.622;7.746;2023-02-21T04:12:45;9.20;99.90
77305;DHT22;66364;52.622;7.746;2023-02-21T04:14:46;9.20;99.90
77305;DHT22;66364;52.622;7.746;2023-02-21T04:16:47;9.20;99.90
77305;DHT22;66364;52.622;7.746;2023-02-21T04:18:48;9.50;99.90
77305;DHT22;66364;52.622;7.746;2023-02-21T04:20:51;9.50;99.90
77305;DHT22;66364;52.622;7.746;2023-02-21T04:22:51;9.20;99.90
77305;DHT22;66364;52.622;7.746;2023-02-21T04:24:53;9.30;99.90
77305;DHT22;66364;52.622;7.746;2023-02-21T04:26:54;9.20;99.90
77305;DHT22;66364;52.622;7.746;2023-02-21T04:28:56;9.30;99.90
77305;DHT22;66364;52.622;7.746;2023-02-21T04:30:56;9.50;99.90
77305;DHT22;66364;52.622;7.746;2023-02-21T04:32:57;9.20;99.90
77305;DHT22;66364;52.622;7.746;2023-02-21T04:34:59;9.30;99.90
77305;DHT22;66364;52.622;7.746;2023-02-21T04:36:59;9.20;99.90
77305;DHT22;66364;52.622;7.746;2023-02-21T04:39:04;9.10;99.90
77305;DHT22;66364;52.622;7.746;2023-02-21T04:41:09;9.30;99.90
77305;DHT22;66364;52.622;7.746;2023-02-21T04:43:10;9.30;99.90
77305;DHT22;66364;52.622;7.746;2023-02-21T04:45:11;8.80;99.90
77305;DHT22;66364;52.622;7.746;2023-02-21T04:47:12;9.30;99.90
77305;DHT22;66364;52.622;7.746;2023-02-21T04:49:14;9.30;99.90
77305;DHT22;66364;52.622;7.746;2023-02-21T04:51:17;9.30;99.90
77305;DHT22;66364;52.622;7.746;2023-02-21T04:53:19;9.40;99.90
77305;DHT22;66364;52.622;7.746;2023-02-21T04:55:20;9.20;99.90
77305;DHT22;66364;52.622;7.746;2023-02-21T04:57:39;9.30;99.90
77305;DHT22;66364;52.622;7.746;2023-02-21T04:59:40;9.40;99.90
77305;DHT22;66364;52.622;7.746;2023-02-21T05:01:42;9.30;99.90
77305;DHT22;66364;52.622;7.746;2023-02-21T05:03:43;9.40;99.90
77305;DHT22;66364;52.622;7.746;2023-02-21T05:05:45;9.50;99.90
77305;DHT22;66364;52.622;7.746;2023-02-21T05:07:46;9.30;99.90
77305;DHT22;66364;52.622;7.746;2023-02-21T05:09:48;9.30;99.90
77305;DHT22;66364;52.622;7.746;2023-02-21T05:11:49;9.40;99.90
77305;DHT22;66364;52.622;7.746;2023-02-21T05:13:51;9.30;99.90
77305;DHT22;66364;52.622;7.746;2023-02-21T05:15:52;9.40;99.90
77305;DHT22;66364;52.622;7.746;2023-02-21T05:17:52;9.40;99.90
77305;DHT22;66364;52.622;7.746;2023-02-21T05:19:54;9.00;99.90
77305;DHT22;66364;52.622;7.746;2023-02-21T05:21:58;9.30;99.90
77305;DHT22;66364;52.622;7.746;2023-02-21T05:24:01;9.10;99.90
77305;DHT22;66364;52.622;7.746;2023-02-21T05:26:07;9.40;99.90
77305;DHT22;66364;52.622;7.746;2023-02-21T05:28:08;9.40;99.90
77305;DHT22;66364;52.622;7.746;2023-02-21T05:30:10;9.40;99.90
77305;DHT22;66364;52.622;7.746;2023-02-21T05:32:21;9.30;99.90
77305;DHT22;66364;52.622;7.746;2023-02-21T05:34:22;9.40;99.90
77305;DHT22;66364;52.622;7.746;2023-02-21T05:36:25;9.30;99.90
77305;DHT22;66364;52.622;7.746;2023-02-21T05:38:27;9.40;99.90
77305;DHT22;66364;52.622;7.746;2023-02-21T05:40:30;9.40;99.90
77305;DHT22;66364;52.622;7.746;2023-02-21T05:42:33;9.20;99.90
77305;DHT22;66364;52.622;7.746;2023-02-21T05:44:34;9.40;99.90
77305;DHT22;66364;52.622;7.746;2023-02-21T05:46:36;9.30;99.90
77305;DHT22;66364;52.622;7.746;2023-02-21T05:48:39;9.30;99.90
77305;DHT22;66364;52.622;7.746;2023-02-21T05:50:40;9.30;99.90
77305;DHT22;66364;52.622;7.746;2023-02-21T05:52:41;9.20;99.90
77305;DHT22;66364;52.622;7.746;2023-02-21T05:54:43;9.50;99.90
77305;DHT22;66364;52.622;7.746;2023-02-21T05:56:46;9.40;99.90
77305;DHT22;66364;52.622;7.746;2023-02-21T05:58:47;8.80;99.90
77305;DHT22;66364;52.622;7.746;2023-02-21T06:00:50;9.40;99.90
77305;DHT22;66364;52.622;7.746;2023-02-21T06:02:53;9.40;99.90
77305;DHT22;66364;52.622;7.746;2023-02-21T06:04:56;9.30;99.90
77305;DHT22;66364;52.622;7.746;2023-02-21T06:06:59;9.50;99.90
77305;DHT22;66364;52.622;7.746;2023-02-21T06:09:02;9.20;99.90
77305;DHT22;66364;52.622;7.746;2023-02-21T06:11:05;9.20;99.90
77305;DHT22;66364;52.622;7.746;2023-02-21T06:13:06;9.30;99.90
77305;DHT22;66364;52.622;7.746;2023-02-21T06:15:22;9.30;99.90
77305;DHT22;66364;52.622;7.746;2023-02-21T06:17:24;9.30;99.90
77305;DHT22;66364;52.622;7.746;2023-02-21T06:19:26;9.30;99.90
77305;DHT22;66364;52.622;7.746;2023-02-21T06:21:27;9.40;99.90
77305;DHT22;66364;52.622;7.746;2023-02-21T06:23:36;9.30;99.90
77305;DHT22;66364;52.622;7.746;2023-02-21T06:25:37;9.40;99.90
77305;DHT22;66364;52.622;7.746;2023-02-21T06:27:38;9.40;99.90
77305;DHT22;66364;52.622;7.746;2023-02-21T06:29:40;9.20;99.90
77305;DHT22;66364;52.622;7.746;2023-02-21T06:31:41;9.30;99.90
77305;DHT22;66364;52.622;7.746;2023-02-21T06:33:41;9.30;99.90
77305;DHT22;66364;52.622;7.746;2023-02-21T06:35:43;9.30;99.90
77305;DHT22;66364;52.622;7.746;2023-02-21T06:37:45;9.20;99.90
77305;DHT22;66364;52.622;7.746;2023-02-21T06:39:47;9.30;99.90
77305;DHT22;66364;52.622;7.746;2023-02-21T06:41:49;9.60;99.90
77305;DHT22;66364;52.622;7.746;2023-02-21T06:43:51;9.30;99.90
77305;DHT22;66364;52.622;7.746;2023-02-21T06:45:53;9.30;99.90
77305;DHT22;66364;52.622;7.746;2023-02-21T06:47:55;9.40;99.90
77305;DHT22;66364;52.622;7.746;2023-02-21T06:49:56;9.40;99.90
77305;DHT22;66364;52.622;7.746;2023-02-21T06:52:02;9.30;99.90
77305;DHT22;66364;52.622;7.746;2023-02-21T06:54:04;9.30;99.90
77305;DHT22;66364;52.622;7.746;2023-02-21T06:56:06;9.20;99.90
77305;DHT22;66364;52.622;7.746;2023-02-21T06:58:08;9.30;99.90
77305;DHT22;66364;52.622;7.746;2023-02-21T07:00:10;9.30;99.90
77305;DHT22;66364;52.622;7.746;2023-02-21T07:02:17;9.30;99.90
77305;DHT22;66364;52.622;7.746;2023-02-21T07:06:43;9.20;99.90
77305;DHT22;66364;52.622;7.746;2023-02-21T07:08:44;9.30;99.90
77305;DHT22;66364;52.622;7.746;2023-02-21T07:10:46;9.30;99.90
77305;DHT22;66364;52.622;7.746;2023-02-21T07:12:47;9.30;99.90
77305;DHT22;66364;52.622;7.746;2023-02-21T07:14:49;8.70;99.90
77305;DHT22;66364;52.622;7.746;2023-02-21T07:16:50;9.20;99.90
77305;DHT22;66364;52.622;7.746;2023-02-21T07:18:51;9.10;99.90
77305;DHT22;66364;52.622;7.746;2023-02-21T07:20:52;9.50;99.90
77305;DHT22;66364;52.622;7.746;2023-02-21T07:23:00;9.20;99.90
77305;DHT22;66364;52.622;7.746;2023-02-21T07:25:01;9.10;99.90
77305;DHT22;66364;52.622;7.746;2023-02-21T07:27:03;9.20;99.90
77305;DHT22;66364;52.622;7.746;2023-02-21T07:29:04;8.90;99.90
77305;DHT22;66364;52.622;7.746;2023-02-21T07:31:06;8.70;99.90
77305;DHT22;66364;52.622;7.746;2023-02-21T07:33:06;9.00;99.90
77305;DHT22;66364;52.622;7.746;2023-02-21T07:35:08;9.20;99.90
77305;DHT22;66364;52.622;7.746;2023-02-21T07:37:10;9.40;99.90
77305;DHT22;66364;52.622;7.746;2023-02-21T07:39:11;9.40;99.90
77305;DHT22;66364;52.622;7.746;2023-02-21T07:41:18;9.20;99.90
77305;DHT22;66364;52.622;7.746;2023-02-21T07:43:20;9.30;99.90
77305;DHT22;66364;52.622;7.746;2023-02-21T07:45:21;9.30;99.90
77305;DHT22;66364;52.622;7.746;2023-02-21T07:47:23;9.20;99.90
77305;DHT22;66364;52.622;7.746;2023-02-21T07:49:24;9.30;99.90
77305;DHT22;66364;52.622;7.746;2023-02-21T07:51:31;9.20;99.90
77305;DHT22;66364;52.622;7.746;2023-02-21T07:53:33;9.20;99.90
77305;DHT22;66364;52.622;7.746;2023-02-21T07:55:35;9.50;99.90
77305;DHT22;66364;52.622;7.746;2023-02-21T07:57:40;9.20;99.90
77305;DHT22;66364;52.622;7.746;2023-02-21T07:59:47;9.30;99.90
77305;DHT22;66364;52.622;7.746;2023-02-21T08:01:49;9.20;99.90
77305;DHT22;66364;52.622;7.746;2023-02-21T08:03:50;8.70;99.90
77305;DHT22;66364;52.622;7.746;2023-02-21T08:05:51;9.20;99.90
77305;DHT22;66364;52.622;7.746;2023-02-21T08:07:51;9.40;99.90
77305;DHT22;66364;52.622;7.746;2023-02-21T08:09:57;9.20;99.90
77305;DHT22;66364;52.622;7.746;2023-02-21T08:11:59;9.40;99.90
77305;DHT22;66364;52.622;7.746;2023-02-21T08:13:59;9.30;99.90
77305;DHT22;66364;52.622;7.746;2023-02-21T08:16:00;9.30;99.90
77305;DHT22;66364;52.622;7.746;2023-02-21T08:18:01;9.30;99.90
77305;DHT22;66364;52.622;7.746;2023-02-21T08:20:04;9.30;99.90
77305;DHT22;66364;52.622;7.746;2023-02-21T08:22:05;9.50;99.90
77305;DHT22;66364;52.622;7.746;2023-02-21T08:24:05;9.50;99.90
77305;DHT22;66364;52.622;7.746;2023-02-21T08:26:06;9.20;99.90
77305;DHT22;66364;52.622;7.746;2023-02-21T08:28:07;9.30;99.90
77305;DHT22;66364;52.622;7.746;2023-02-21T08:30:10;9.20;99.90
77305;DHT22;66364;52.622;7.746;2023-02-21T08:32:11;9.40;99.90
77305;DHT22;66364;52.622;7.746;2023-02-21T08:34:13;9.60;99.90
77305;DHT22;66364;52.622;7.746;2023-02-21T08:36:14;9.30;99.90
77305;DHT22;66364;52.622;7.746;2023-02-21T08:38:17;9.40;99.90
77305;DHT22;66364;52.622;7.746;2023-02-21T08:40:18;9.40;99.90
77305;DHT22;66364;52.622;7.746;2023-02-21T08:42:20;9.30;99.90
77305;DHT22;66364;52.622;7.746;2023-02-21T08:44:21;9.30;99.90
77305;DHT22;66364;52.622;7.746;2023-02-21T08:46:23;9.30;99.90
77305;DHT22;66364;52.622;7.746;2023-02-21T08:48:25;9.40;99.90
77305;DHT22;66364;52.622;7.746;2023-02-21T08:50:32;9.30;99.90
77305;DHT22;66364;52.622;7.746;2023-02-21T08:52:34;9.30;99.90
77305;DHT22;66364;52.622;7.746;2023-02-21T08:54:38;9.60;99.90
77305;DHT22;66364;52.622;7.746;2023-02-21T08:56:39;9.50;99.90
77305;DHT22;66364;52.622;7.746;2023-02-21T08:58:42;9.70;99.90
77305;DHT22;66364;52.622;7.746;2023-02-21T09:00:44;9.30;99.90
77305;DHT22;66364;52.622;7.746;2023-02-21T09:02:44;9.60;99.90
77305;DHT22;66364;52.622;7.746;2023-02-21T09:04:47;9.30;99.90
77305;DHT22;66364;52.622;7.746;2023-02-21T09:06:50;9.30;99.90
77305;DHT22;66364;52.622;7.746;2023-02-21T09:08:51;9.60;99.90
77305;DHT22;66364;52.622;7.746;2023-02-21T09:10:52;9.50;99.90
77305;DHT22;66364;52.622;7.746;2023-02-21T09:12:52;9.40;99.90
77305;DHT22;66364;52.622;7.746;2023-02-21T09:14:53;9.50;99.90
77305;DHT22;66364;52.622;7.746;2023-02-21T09:16:55;9.40;99.90
77305;DHT22;66364;52.622;7.746;2023-02-21T09:18:57;9.30;99.90
77305;DHT22;66364;52.622;7.746;2023-02-21T09:20:58;9.50;99.90
77305;DHT22;66364;52.622;7.746;2023-02-21T09:22:59;9.40;99.90
77305;DHT22;66364;52.622;7.746;2023-02-21T09:25:01;9.40;99.90
77305;DHT22;66364;52.622;7.746;2023-02-21T09:27:03;9.50;99.90
77305;DHT22;66364;52.622;7.746;2023-02-21T09:29:04;9.50;99.90
77305;DHT22;66364;52.622;7.746;2023-02-21T09:31:05;9.20;99.90
77305;DHT22;66364;52.622;7.746;2023-02-21T09:33:06;9.50;99.90
77305;DHT22;66364;52.622;7.746;2023-02-21T09:35:09;9.80;99.90
77305;DHT22;66364;52.622;7.746;2023-02-21T09:37:10;9.60;99.90
77305;DHT22;66364;52.622;7.746;2023-02-21T09:39:11;9.30;99.90
77305;DHT22;66364;52.622;7.746;2023-02-21T09:41:12;9.30;99.90
77305;DHT22;66364;52.622;7.746;2023-02-21T09:43:35;9.50;99.90
77305;DHT22;66364;52.622;7.746;2023-02-21T09:45:37;9.80;99.90
77305;DHT22;66364;52.622;7.746;2023-02-21T09:47:39;9.50;99.90
77305;DHT22;66364;52.622;7.746;2023-02-21T09:49:41;9.50;99.90
77305;DHT22;66364;52.622;7.746;2023-02-21T09:51:44;9.40;99.90
77305;DHT22;66364;52.622;7.746;2023-02-21T09:53:47;9.40;99.90
77305;DHT22;66364;52.622;7.746;2023-02-21T09:55:49;9.60;99.90
77305;DHT22;66364;52.622;7.746;2023-02-21T09:57:51;9.60;99.90
77305;DHT22;66364;52.622;7.746;2023-02-21T09:59:57;9.60;99.90
77305;DHT22;66364;52.622;7.746;2023-02-21T10:06:51;9.30;99.90
77305;DHT22;66364;52.622;7.746;2023-02-21T10:16:31;9.30;99.90
77305;DHT22;66364;52.622;7.746;2023-02-21T10:19:02;9.50;99.90
77305;DHT22;66364;52.622;7.746;2023-02-21T10:20:55;9.40;99.90
77305;DHT22;66364;52.622;7.746;2023-02-21T10:22:59;9.40;99.90
77305;DHT22;66364;52.622;7.746;2023-02-21T10:27:24;9.70;99.90
77305;DHT22;66364;52.622;7.746;2023-02-21T10:29:49;9.30;99.90
77305;DHT22;66364;52.622;7.746;2023-02-21T10:31:38;9.50;99.90
77305;DHT22;66364;52.622;7.746;2023-02-21T10:33:40;9.30;99.90
77305;DHT22;66364;52.622;7.746;2023-02-21T10:35:41;9.50;99.90
77305;DHT22;66364;52.622;7.746;2023-02-21T10:37:52;9.60;99.90
77305;DHT22;66364;52.622;7.746;2023-02-21T10:42:33;9.90;99.90
77305;DHT22;66364;52.622;7.746;2023-02-21T10:44:34;9.90;99.90
77305;DHT22;66364;52.622;7.746;2023-02-21T10:46:49;9.60;99.90
77305;DHT22;66364;52.622;7.746;2023-02-21T10:48:58;9.70;99.90
77305;DHT22;66364;52.622;7.746;2023-02-21T10:51:12;9.60;99.90
77305;DHT22;66364;52.622;7.746;2023-02-21T10:55:28;9.70;99.90
77305;DHT22;66364;52.622;7.746;2023-02-21T10:57:30;9.60;99.90
77305;DHT22;66364;52.622;7.746;2023-02-21T10:59:37;9.70;99.90
77305;DHT22;66364;52.622;7.746;2023-02-21T11:01:43;9.80;99.90
77305;DHT22;66364;52.622;7.746;2023-02-21T11:03:58;9.70;99.90
77305;DHT22;66364;52.622;7.746;2023-02-21T11:05:59;9.70;99.90
77305;DHT22;66364;52.622;7.746;2023-02-21T11:08:09;9.80;99.90
77305;DHT22;66364;52.622;7.746;2023-02-21T11:10:37;9.70;99.90
77305;DHT22;66364;52.622;7.746;2023-02-21T11:12:38;9.90;99.90
77305;DHT22;66364;52.622;7.746;2023-02-21T11:14:41;9.70;99.90
77305;DHT22;66364;52.622;7.746;2023-02-21T11:16:43;9.80;99.90
77305;DHT22;66364;52.622;7.746;2023-02-21T11:18:44;9.70;99.90
77305;DHT22;66364;52.622;7.746;2023-02-21T11:20:46;9.60;99.90
77305;DHT22;66364;52.622;7.746;2023-02-21T11:22:48;9.70;99.90
77305;DHT22;66364;52.622;7.746;2023-02-21T11:27:11;9.90;99.90
77305;DHT22;66364;52.622;7.746;2023-02-21T11:29:15;9.70;99.90
77305;DHT22;66364;52.622;7.746;2023-02-21T11:31:35;9.70;99.90
77305;DHT22;66364;52.622;7.746;2023-02-21T11:33:43;10.10;99.90
77305;DHT22;66364;52.622;7.746;2023-02-21T11:35:47;9.80;99.90
77305;DHT22;66364;52.622;7.746;2023-02-21T11:38:01;9.70;99.90
77305;DHT22;66364;52.622;7.746;2023-02-21T11:40:04;9.80;99.90
77305;DHT22;66364;52.622;7.746;2023-02-21T11:42:31;9.90;99.90
77305;DHT22;66364;52.622;7.746;2023-02-21T11:44:34;9.80;99.90
77305;DHT22;66364;52.622;7.746;2023-02-21T11:46:44;10.20;99.90
77305;DHT22;66364;52.622;7.746;2023-02-21T11:51:15;10.10;99.90
77305;DHT22;66364;52.622;7.746;2023-02-21T11:55:23;9.80;99.90
77305;DHT22;66364;52.622;7.746;2023-02-21T12:00:26;9.70;99.90
77305;DHT22;66364;52.622;7.746;2023-02-21T12:07:21;9.70;99.90
77305;DHT22;66364;52.622;7.746;2023-02-21T12:09:46;9.70;99.90
77305;DHT22;66364;52.622;7.746;2023-02-21T12:14:29;9.80;99.90
77305;DHT22;66364;52.622;7.746;2023-02-21T12:21:59;9.70;99.90
77305;DHT22;66364;52.622;7.746;2023-02-21T12:24:21;9.50;99.90
77305;DHT22;66364;52.622;7.746;2023-02-21T12:51:00;9.60;99.90
77305;DHT22;66364;52.622;7.746;2023-02-21T12:53:12;9.90;99.90
77305;DHT22;66364;52.622;7.746;2023-02-21T12:55:25;9.90;99.90
77305;DHT22;66364;52.622;7.746;2023-02-21T12:57:47;9.70;99.90
77305;DHT22;66364;52.622;7.746;2023-02-21T13:00:03;9.60;99.90
77305;DHT22;66364;52.622;7.746;2023-02-21T13:11:39;9.80;99.90
77305;DHT22;66364;52.622;7.746;2023-02-21T13:13:40;9.70;99.90
77305;DHT22;66364;52.622;7.746;2023-02-21T13:15:43;9.60;99.90
77305;DHT22;66364;52.622;7.746;2023-02-21T13:17:59;9.60;99.90
77305;DHT22;66364;52.622;7.746;2023-02-21T13:20:17;9.70;99.90
77305;DHT22;66364;52.622;7.746;2023-02-21T13:29:36;9.60;99.90
77305;DHT22;66364;52.622;7.746;2023-02-21T13:31:41;9.80;99.90
77305;DHT22;66364;52.622;7.746;2023-02-21T13:33:56;9.60;99.90
77305;DHT22;66364;52.622;7.746;2023-02-21T13:35:59;9.70;99.90
77305;DHT22;66364;52.622;7.746;2023-02-21T13:38:01;9.90;99.90
77305;DHT22;66364;52.622;7.746;2023-02-21T13:40:15;9.90;99.90
77305;DHT22;66364;52.622;7.746;2023-02-21T13:42:24;10.20;99.90
77305;DHT22;66364;52.622;7.746;2023-02-21T13:48:38;9.80;99.90
77305;DHT22;66364;52.622;7.746;2023-02-21T13:50:49;10.30;99.90
77305;DHT22;66364;52.622;7.746;2023-02-21T13:53:00;10.10;99.90
77305;DHT22;66364;52.622;7.746;2023-02-21T13:57:29;10.00;99.90
77305;DHT22;66364;52.622;7.746;2023-02-21T13:59:33;10.00;99.90
77305;DHT22;66364;52.622;7.746;2023-02-21T14:01:40;10.20;99.90
77305;DHT22;66364;52.622;7.746;2023-02-21T14:03:41;10.00;99.90
77305;DHT22;66364;52.622;7.746;2023-02-21T14:07:59;10.00;99.90
77305;DHT22;66364;52.622;7.746;2023-02-21T14:10:00;10.10;99.90
77305;DHT22;66364;52.622;7.746;2023-02-21T14:12:07;10.20;99.90
77305;DHT22;66364;52.622;7.746;2023-02-21T14:14:27;9.80;99.90
77305;DHT22;66364;52.622;7.746;2023-02-21T14:17:17;10.20;99.90
77305;DHT22;66364;52.622;7.746;2023-02-21T14:19:07;10.30;99.90
77305;DHT22;66364;52.622;7.746;2023-02-21T14:25:58;10.10;99.90
77305;DHT22;66364;52.622;7.746;2023-02-21T14:27:59;10.10;99.90
77305;DHT22;66364;52.622;7.746;2023-02-21T14:32:22;10.00;99.90
77305;DHT22;66364;52.622;7.746;2023-02-21T14:34:26;10.20;99.90
77305;DHT22;66364;52.622;7.746;2023-02-21T14:36:27;10.30;99.90
77305;DHT22;66364;52.622;7.746;2023-02-21T14:38:33;10.20;99.90
77305;DHT22;66364;52.622;7.746;2023-02-21T14:54:37;10.20;99.90
77305;DHT22;66364;52.622;7.746;2023-02-21T14:56:47;10.10;99.90
77305;DHT22;66364;52.622;7.746;2023-02-21T15:02:14;10.30;99.90
77305;DHT22;66364;52.622;7.746;2023-02-21T15:06:30;10.30;99.90
77305;DHT22;66364;52.622;7.746;2023-02-21T15:08:41;10.00;99.90
77305;DHT22;66364;52.622;7.746;2023-02-21T15:10:45;10.00;99.90
77305;DHT22;66364;52.622;7.746;2023-02-21T15:12:50;10.30;99.90
77305;DHT22;66364;52.622;7.746;2023-02-21T15:14:52;10.00;99.90
77305;DHT22;66364;52.622;7.746;2023-02-21T15:16:56;10.10;99.90
77305;DHT22;66364;52.622;7.746;2023-02-21T15:19:00;10.20;99.90
77305;DHT22;66364;52.622;7.746;2023-02-21T15:21:05;10.30;99.90
77305;DHT22;66364;52.622;7.746;2023-02-21T15:23:15;10.30;99.90
77305;DHT22;66364;52.622;7.746;2023-02-21T15:25:18;10.10;99.90
77305;DHT22;66364;52.622;7.746;2023-02-21T15:27:20;9.70;99.90
77305;DHT22;66364;52.622;7.746;2023-02-21T15:29:21;9.90;99.90
77305;DHT22;66364;52.622;7.746;2023-02-21T15:31:25;9.90;99.90
77305;DHT22;66364;52.622;7.746;2023-02-21T15:33:32;9.90;99.90
77305;DHT22;66364;52.622;7.746;2023-02-21T15:35:52;10.20;99.90
77305;DHT22;66364;52.622;7.746;2023-02-21T15:37:56;9.90;99.90
77305;DHT22;66364;52.622;7.746;2023-02-21T15:40:02;10.20;99.90
77305;DHT22;66364;52.622;7.746;2023-02-21T15:42:07;9.90;99.90
77305;DHT22;66364;52.622;7.746;2023-02-21T15:44:12;10.20;99.90
77305;DHT22;66364;52.622;7.746;2023-02-21T15:46:17;9.90;99.90
77305;DHT22;66364;52.622;7.746;2023-02-21T15:48:18;10.00;99.90
77305;DHT22;66364;52.622;7.746;2023-02-21T15:54:38;10.10;99.90
77305;DHT22;66364;52.622;7.746;2023-02-21T15:56:39;9.90;99.90
77305;DHT22;66364;52.622;7.746;2023-02-21T16:01:09;9.90;99.90